Time;durP1;ratioP1;P1;durP2;ratioP2;P2;SDS_P1;SDS_P2;PMS_P1;PMS_P2;Temp;Humidity;BMP_temperature;BMP_pressure;BME280_temperature;BME280_humidity;BME280_pressure;Samples;Min_cycle;Max_cycle;Signal;HPM_P1;HPM_P2
2023/01/05 06:01:33;;;;;;;0.30;0.10;;;11.80;99.90;;;;;;5808493;23;20023;-73
2023/01/05 06:03:59;;;;;;;2.70;0.10;;;11.80;99.90;;;;;;4890123;29;20188;-75
2023/01/05 06:06:25;;;;;;;0.98;0.20;;;11.80;99.90;;;;;;4888518;29;20310;-74
2023/01/05 06:08:50;;;;;;;1.77;0.20;;;11.60;99.90;;;;;;4888375;29;20210;-76
2023/01/05 06:11:16;;;;;;;1.10;0.20;;;11.60;99.90;;;;;;4891212;29;20298;-74
2023/01/05 06:13:42;;;;;;;1.17;0.10;;;11.50;99.90;;;;;;4903434;29;20041;-75
2023/01/05 06:16:09;;;;;;;0.75;0.20;;;11.40;99.90;;;;;;4888419;29;20112;-76
2023/01/05 06:18:34;;;;;;;2.33;0.20;;;11.30;99.90;;;;;;4888451;29;20303;-75
2023/01/05 06:21:00;;;;;;;1.48;0.30;;;11.20;99.90;;;;;;4888081;29;20041;-74
2023/01/05 06:23:26;;;;;;;1.92;0.20;;;11.10;99.90;;;;;;4888284;29;20036;-74
2023/01/05 06:25:52;;;;;;;2.42;0.20;;;11.00;99.90;;;;;;4888103;29;20044;-73
2023/01/05 06:28:17;;;;;;;1.38;0.30;;;10.90;99.90;;;;;;4888616;29;20298;-74
2023/01/05 06:30:43;;;;;;;1.52;0.30;;;10.70;99.90;;;;;;4888531;29;20056;-75
2023/01/05 06:33:09;;;;;;;1.48;0.22;;;10.70;99.90;;;;;;4887635;29;20051;-74
2023/01/05 06:35:35;;;;;;;2.00;0.40;;;10.60;99.90;;;;;;4887426;29;20302;-74
2023/01/05 06:38:00;;;;;;;3.65;0.50;;;10.50;99.90;;;;;;4888149;29;20040;-75
2023/01/05 06:40:26;;;;;;;3.78;0.40;;;10.50;99.90;;;;;;4888230;29;20059;-73
2023/01/05 06:42:52;;;;;;;3.03;0.57;;;10.40;99.90;;;;;;4887990;29;20033;-76
2023/01/05 06:45:17;;;;;;;2.67;0.47;;;10.40;99.90;;;;;;4888014;29;20036;-74
2023/01/05 06:47:43;;;;;;;1.98;0.40;;;10.40;99.90;;;;;;4888227;29;20091;-73
2023/01/05 06:50:10;;;;;;;3.72;0.40;;;10.40;99.90;;;;;;4887778;29;20037;-72
2023/01/05 06:52:38;;;;;;;4.25;0.70;;;10.40;99.90;;;;;;4888115;29;20036;-74
2023/01/05 06:55:10;;;;;;;3.35;0.43;;;10.40;99.90;;;;;;4902150;29;20033;-73
2023/01/05 06:57:36;;;;;;;3.97;0.75;;;10.40;99.90;;;;;;4888273;29;20032;-74
2023/01/05 07:00:05;;;;;;;4.45;0.38;;;10.40;99.90;;;;;;4887440;29;20032;-74
2023/01/05 07:02:31;;;;;;;2.67;0.40;;;10.40;99.90;;;;;;4888042;29;20053;-73
2023/01/05 07:04:56;;;;;;;3.10;0.43;;;10.30;99.90;;;;;;4887379;29;20251;-74
2023/01/05 07:07:22;;;;;;;1.67;0.60;;;10.30;99.90;;;;;;4888293;29;20092;-75
2023/01/05 07:09:48;;;;;;;2.42;0.45;;;10.40;99.90;;;;;;4886950;29;20096;-73
2023/01/05 07:12:14;;;;;;;1.73;0.45;;;10.40;99.90;;;;;;4887538;29;20032;-75
2023/01/05 07:14:40;;;;;;;2.20;0.40;;;10.40;99.90;;;;;;4888234;29;20114;-73
2023/01/05 07:17:06;;;;;;;2.40;0.50;;;10.40;99.90;;;;;;4887418;29;20184;-72
2023/01/05 07:19:32;;;;;;;2.33;0.40;;;10.40;99.90;;;;;;4887825;29;20044;-73
2023/01/05 07:21:58;;;;;;;3.92;0.60;;;10.40;99.90;;;;;;4887381;29;20223;-72
2023/01/05 07:24:24;;;;;;;2.65;0.47;;;10.50;99.90;;;;;;4886726;29;20033;-73
2023/01/05 07:26:50;;;;;;;1.67;0.40;;;10.50;99.90;;;;;;4887680;29;20025;-74
2023/01/05 07:29:16;;;;;;;1.98;0.40;;;10.50;99.90;;;;;;4887446;29;20076;-72
2023/01/05 07:31:41;;;;;;;2.25;0.50;;;10.50;99.90;;;;;;4887680;29;20090;-71
2023/01/05 07:34:08;;;;;;;3.03;0.57;;;10.50;99.90;;;;;;4887428;29;19928;-73
2023/01/05 07:36:34;;;;;;;3.92;0.60;;;10.50;99.90;;;;;;4887584;29;20362;-72
2023/01/05 07:39:00;;;;;;;3.78;0.85;;;10.60;99.90;;;;;;4887391;29;20096;-73
2023/01/05 07:41:26;;;;;;;1.83;0.40;;;10.60;99.90;;;;;;4887791;29;20033;-73
2023/01/05 07:43:52;;;;;;;4.00;0.73;;;10.60;99.90;;;;;;4887578;29;20041;-70
2023/01/05 07:46:17;;;;;;;2.70;0.40;;;10.80;99.90;;;;;;4887001;29;20029;-71
2023/01/05 07:48:43;;;;;;;5.35;0.80;;;10.80;99.90;;;;;;4887715;29;20088;-71
2023/01/05 07:51:09;;;;;;;2.25;0.50;;;10.90;99.90;;;;;;4886055;29;20080;-71
2023/01/05 07:53:37;;;;;;;5.32;0.70;;;11.00;99.90;;;;;;4887688;29;20044;-71
2023/01/05 07:56:04;;;;;;;2.60;0.63;;;11.10;99.90;;;;;;4887032;29;20061;-72
2023/01/05 07:58:31;;;;;;;4.15;0.38;;;11.10;99.90;;;;;;4889035;29;20033;-70
2023/01/05 08:01:01;;;;;;;6.03;0.93;;;11.20;99.90;;;;;;4890557;29;20032;-71
2023/01/05 08:03:26;;;;;;;4.75;0.60;;;11.20;99.90;;;;;;4890798;29;20064;-71
2023/01/05 08:05:52;;;;;;;5.20;0.50;;;11.20;99.90;;;;;;4889608;29;20033;-71
2023/01/05 08:08:18;;;;;;;5.50;0.85;;;11.30;99.90;;;;;;4890106;29;20028;-71
2023/01/05 08:10:43;;;;;;;4.82;0.80;;;11.40;99.90;;;;;;4890663;29;20032;-70
2023/01/05 08:15:56;;;;;;;4.25;0.80;;;11.30;99.90;;;;;;4890551;29;20041;-71
2023/01/05 08:18:22;;;;;;;5.60;1.58;;;11.30;99.90;;;;;;4891018;29;20088;-71
2023/01/05 08:20:56;;;;;;;3.95;0.82;;;11.30;99.90;;;;;;4890581;29;20073;-72
2023/01/05 08:23:26;;;;;;;3.05;0.55;;;11.30;99.90;;;;;;4890963;29;20025;-78
2023/01/05 08:25:56;;;;;;;3.47;0.70;;;11.30;99.90;;;;;;4890694;29;20049;-70
2023/01/05 08:28:23;;;;;;;2.88;0.60;;;11.40;99.90;;;;;;4890322;29;20278;-69
2023/01/05 08:30:49;;;;;;;3.60;0.90;;;11.40;99.90;;;;;;4890562;29;20268;-71
2023/01/05 08:33:15;;;;;;;4.60;0.70;;;11.40;99.90;;;;;;4889807;29;20214;-73
2023/01/05 08:35:42;;;;;;;3.88;1.10;;;11.40;99.90;;;;;;4890426;29;20029;-78
2023/01/05 08:38:09;;;;;;;5.60;0.80;;;11.50;99.90;;;;;;4889880;29;20033;-73
2023/01/05 08:40:36;;;;;;;5.22;0.80;;;11.50;99.90;;;;;;4889994;29;20211;-75
2023/01/05 08:43:03;;;;;;;3.92;1.02;;;11.50;99.90;;;;;;4889648;29;20059;-76
2023/01/05 08:45:30;;;;;;;5.10;0.80;;;11.60;99.90;;;;;;4890133;29;20032;-77
2023/01/05 08:47:56;;;;;;;4.85;0.80;;;11.60;99.90;;;;;;4890381;29;20034;-78
2023/01/05 08:50:22;;;;;;;3.72;0.80;;;11.70;99.90;;;;;;4889645;29;20037;-74
2023/01/05 08:52:47;;;;;;;5.57;1.17;;;11.60;99.90;;;;;;4889628;29;20039;-72
2023/01/05 08:55:13;;;;;;;3.13;0.70;;;11.70;99.90;;;;;;4889631;29;20033;-72
2023/01/05 08:57:39;;;;;;;4.60;0.82;;;11.70;99.90;;;;;;4889736;29;20303;-72
2023/01/05 09:00:07;;;;;;;6.00;0.88;;;11.70;99.90;;;;;;4888274;29;20029;-71
2023/01/05 09:02:32;;;;;;;6.15;0.75;;;11.80;99.90;;;;;;4889185;29;20108;-72
2023/01/05 09:04:58;;;;;;;7.10;1.08;;;11.80;99.90;;;;;;4888486;29;20039;-73
2023/01/05 09:07:24;;;;;;;7.65;1.13;;;11.80;99.90;;;;;;4889809;29;20251;-72
2023/01/05 09:09:50;;;;;;;7.15;0.98;;;11.80;99.90;;;;;;4887583;29;20021;-73
2023/01/05 09:12:15;;;;;;;7.97;1.20;;;11.80;99.90;;;;;;4888598;29;20048;-74
2023/01/05 09:14:41;;;;;;;6.18;1.02;;;11.70;99.90;;;;;;4888516;29;20053;-73
2023/01/05 09:17:07;;;;;;;5.13;0.90;;;11.80;99.90;;;;;;4878394;29;20302;-74
2023/01/05 09:19:33;;;;;;;4.85;0.88;;;11.80;99.90;;;;;;4887071;29;20021;-75
2023/01/05 09:21:59;;;;;;;8.75;1.00;;;11.90;99.90;;;;;;4888589;29;20029;-74
2023/01/05 09:24:24;;;;;;;5.15;0.90;;;12.00;99.90;;;;;;4889331;29;20021;-72
2023/01/05 09:26:50;;;;;;;5.43;1.52;;;12.00;99.90;;;;;;4889205;29;20041;-75
2023/01/05 09:29:16;;;;;;;11.95;1.35;;;12.00;99.90;;;;;;4888594;29;20211;-73
2023/01/05 09:31:42;;;;;;;6.70;1.67;;;12.10;99.90;;;;;;4888487;29;20056;-72
2023/01/05 09:34:09;;;;;;;5.93;1.30;;;12.10;99.90;;;;;;4888280;29;20267;-71
2023/01/05 09:36:37;;;;;;;8.02;1.23;;;12.10;99.90;;;;;;4889016;29;20037;-76
2023/01/05 09:39:05;;;;;;;8.57;1.73;;;12.20;99.90;;;;;;4888882;29;20085;-73
2023/01/05 09:41:39;;;;;;;6.13;1.38;;;12.10;99.90;;;;;;4889120;29;20037;-73
2023/01/05 09:44:12;;;;;;;7.30;1.40;;;12.10;99.90;;;;;;4888665;29;20040;-72
2023/01/05 09:46:41;;;;;;;7.95;1.40;;;12.20;99.90;;;;;;4889763;29;20043;-72
2023/01/05 09:49:13;;;;;;;11.88;2.35;;;12.10;99.90;;;;;;4888648;29;20040;-71
2023/01/05 09:51:40;;;;;;;8.60;1.80;;;12.20;99.90;;;;;;4888951;29;20059;-74
2023/01/05 09:54:07;;;;;;;6.93;1.10;;;12.10;99.90;;;;;;4888369;29;20041;-72
2023/01/05 09:56:36;;;;;;;10.15;1.70;;;12.20;99.90;;;;;;4889044;29;20041;-71
2023/01/05 09:59:17;;;;;;;7.38;2.03;;;12.20;99.90;;;;;;4888165;29;20032;-74
2023/01/05 10:01:46;;;;;;;12.93;1.65;;;12.20;99.90;;;;;;4888263;29;20041;-76
2023/01/05 10:04:14;;;;;;;;;;;12.30;99.90;;;;;;4889174;29;20017;-72
2023/01/05 10:06:45;;;;;;;6.45;1.13;;;12.30;99.90;;;;;;4888506;29;19907;-72
2023/01/05 10:09:18;;;;;;;10.55;1.80;;;12.40;99.90;;;;;;4888116;29;20092;-72
2023/01/05 10:15:09;;;;;;;9.43;1.33;;;12.40;99.90;;;;;;4888625;29;20105;-73
2023/01/05 10:17:38;;;;;;;8.43;1.60;;;12.30;99.90;;;;;;4888573;29;20461;-73
2023/01/05 10:20:17;;;;;;;10.82;2.00;;;12.20;99.90;;;;;;4888022;29;20081;-74
2023/01/05 10:22:59;;;;;;;11.45;1.65;;;12.30;99.90;;;;;;4904077;29;20055;-71
2023/01/05 10:26:01;;;;;;;10.50;1.52;;;12.40;99.90;;;;;;4906991;29;20310;-72
2023/01/05 10:28:39;;;;;;;7.30;1.52;;;12.40;99.90;;;;;;4906861;29;20032;-72
2023/01/05 10:31:28;;;;;;;9.45;1.55;;;12.50;99.90;;;;;;4906960;29;20033;-72
2023/01/05 10:34:47;;;;;;;10.20;1.63;;;12.50;99.90;;;;;;4900428;29;20120;-72
2023/01/05 10:37:25;;;;;;;8.80;2.05;;;12.50;99.90;;;;;;4851449;29;20078;-72
2023/01/05 10:40:12;;;;;;;8.57;1.30;;;12.50;99.90;;;;;;4902221;29;20053;-72
2023/01/05 10:42:44;;;;;;;6.82;1.58;;;12.50;99.90;;;;;;4905828;29;20080;-72
2023/01/05 10:45:14;;;;;;;9.90;1.92;;;12.50;99.90;;;;;;4906029;29;20345;-71
2023/01/05 10:47:41;;;;;;;7.32;1.45;;;12.60;99.90;;;;;;4907052;29;20036;-71
2023/01/05 10:50:22;;;;;;;10.93;1.90;;;12.60;99.90;;;;;;4912955;29;20029;-71
2023/01/05 10:52:48;;;;;;;8.07;1.35;;;12.70;99.90;;;;;;4914489;29;20064;-69
2023/01/05 10:55:16;;;;;;;9.77;1.30;;;12.60;99.90;;;;;;4914860;29;20017;-72
2023/01/05 10:57:42;;;;;;;10.65;1.40;;;12.60;99.90;;;;;;4909688;29;20038;-72
2023/01/05 11:00:13;;;;;;;9.48;1.63;;;12.50;99.90;;;;;;4906034;29;20032;-71
2023/01/05 11:02:52;;;;;;;9.85;1.63;;;12.60;99.90;;;;;;4906538;29;20334;-72
2023/01/05 11:05:24;;;;;;;6.85;1.10;;;12.70;99.90;;;;;;4905764;29;20029;-70
2023/01/05 11:08:01;;;;;;;9.82;1.33;;;12.70;99.90;;;;;;4907104;29;20088;-70
2023/01/05 11:10:29;;;;;;;7.27;1.50;;;12.60;99.90;;;;;;4906551;29;20033;-71
2023/01/05 11:13:05;;;;;;;5.67;1.50;;;12.60;99.90;;;;;;4906400;29;20052;-72
2023/01/05 11:15:39;;;;;;;10.10;1.38;;;12.50;99.90;;;;;;4906520;29;20052;-73
2023/01/05 11:18:06;;;;;;;10.32;2.33;;;12.50;99.90;;;;;;4906180;29;20029;-69
2023/01/05 11:20:32;;;;;;;11.07;1.65;;;12.50;99.90;;;;;;4906488;29;20033;-70
2023/01/05 11:22:58;;;;;;;8.98;1.60;;;12.60;99.90;;;;;;4906432;29;20120;-71
2023/01/05 11:25:29;;;;;;;10.02;1.50;;;12.60;99.90;;;;;;4905896;29;20045;-72
2023/01/05 11:28:09;;;;;;;8.27;1.70;;;12.60;99.90;;;;;;4906022;29;20287;-71
2023/01/05 11:30:37;;;;;;;9.13;1.88;;;12.60;99.90;;;;;;4906137;29;20035;-71
2023/01/05 11:33:10;;;;;;;10.10;1.70;;;12.60;99.90;;;;;;4906204;29;20056;-70
2023/01/05 11:35:37;;;;;;;6.85;1.75;;;12.60;99.90;;;;;;4910226;29;20032;-71
2023/01/05 11:38:03;;;;;;;6.97;1.33;;;12.60;99.90;;;;;;4910267;29;20036;-70
2023/01/05 11:40:33;;;;;;;11.52;1.77;;;12.70;99.90;;;;;;4910118;29;20037;-74
2023/01/05 11:42:59;;;;;;;8.02;1.30;;;12.70;99.90;;;;;;4908868;29;20040;-72
2023/01/05 11:45:45;;;;;;;11.48;1.65;;;12.70;99.90;;;;;;4909610;29;20067;-72
2023/01/05 11:48:18;;;;;;;8.27;1.70;;;12.70;99.90;;;;;;4909702;29;20044;-71
2023/01/05 11:50:50;;;;;;;12.82;1.77;;;12.70;99.90;;;;;;4910196;29;20032;-71
2023/01/05 11:53:24;;;;;;;11.07;1.67;;;12.70;99.90;;;;;;4909077;29;20349;-74
2023/01/05 11:56:04;;;;;;;8.38;1.65;;;12.70;99.90;;;;;;4908549;29;20044;-72
2023/01/05 11:58:50;;;;;;;10.18;2.08;;;12.70;99.90;;;;;;4909708;29;20032;-72
2023/01/05 12:01:47;;;;;;;10.02;1.38;;;12.70;99.90;;;;;;4908811;29;20024;-73
2023/01/05 12:04:38;;;;;;;8.40;1.83;;;12.60;99.90;;;;;;4909385;29;20117;-72
2023/01/05 12:07:10;;;;;;;12.38;2.28;;;12.60;99.90;;;;;;4909269;29;20044;-76
2023/01/05 12:09:45;;;;;;;9.55;2.00;;;12.70;99.90;;;;;;4909676;29;20048;-71
2023/01/05 12:12:22;;;;;;;7.50;1.55;;;12.80;99.90;;;;;;4908958;29;20281;-77
2023/01/05 12:15:03;;;;;;;8.47;1.53;;;12.70;99.90;;;;;;4908377;29;20036;-76
2023/01/05 12:17:54;;;;;;;7.00;1.55;;;12.80;99.90;;;;;;4907877;29;20032;-77
2023/01/05 12:20:20;;;;;;;12.23;1.50;;;12.80;99.90;;;;;;4908877;29;20025;-76
2023/01/05 12:22:54;;;;;;;9.65;2.05;;;12.80;99.90;;;;;;4908422;29;20055;-80
2023/01/05 12:25:30;;;;;;;8.80;1.83;;;12.80;99.90;;;;;;4908799;29;20096;-77
2023/01/05 12:28:33;;;;;;;11.50;1.42;;;12.80;99.90;;;;;;4909221;29;20028;-76
2023/01/05 12:31:25;;;;;;;9.98;1.50;;;12.80;99.90;;;;;;4907908;29;20032;-75
2023/01/05 12:34:05;;;;;;;7.30;1.55;;;12.90;99.90;;;;;;4907937;29;20084;-78
2023/01/05 12:37:09;;;;;;;10.57;1.73;;;12.90;99.90;;;;;;4909181;29;20036;-78
2023/01/05 12:40:23;;;;;;;11.98;1.95;;;12.80;99.90;;;;;;4909063;29;20048;-73
2023/01/05 12:42:48;;;;;;;9.98;1.58;;;12.80;99.90;;;;;;4857292;29;20227;-72
2023/01/05 12:45:20;;;;;;;8.52;1.77;;;12.80;99.90;;;;;;4887625;29;20051;-72
2023/01/05 12:48:01;;;;;;;13.15;1.98;;;12.90;99.90;;;;;;4898548;29;20088;-71
2023/01/05 12:50:41;;;;;;;7.18;1.55;;;12.80;99.90;;;;;;4889591;29;20244;-70
2023/01/05 12:53:20;;;;;;;11.88;2.10;;;12.90;99.90;;;;;;4889793;29;20064;-74
2023/01/05 12:55:52;;;;;;;9.27;1.55;;;12.80;99.90;;;;;;4900365;29;20322;-72
2023/01/05 12:58:32;;;;;;;12.05;1.88;;;12.70;99.90;;;;;;4908304;29;20314;-71
2023/01/05 13:01:00;;;;;;;9.82;1.50;;;12.80;99.90;;;;;;4908443;29;20222;-72
2023/01/05 13:03:32;;;;;;;8.38;2.03;;;12.80;99.90;;;;;;4907616;29;20287;-70
2023/01/05 13:06:09;;;;;;;14.73;1.98;;;12.80;99.90;;;;;;4908102;29;20036;-76
2023/01/05 13:08:56;;;;;;;11.05;1.65;;;12.80;99.90;;;;;;4907155;29;20040;-77
2023/01/05 13:11:43;;;;;;;8.18;1.65;;;12.70;99.90;;;;;;4908015;29;20020;-76
2023/01/05 13:14:18;;;;;;;8.23;1.88;;;12.70;99.90;;;;;;4907970;29;20231;-78
2023/01/05 13:17:05;;;;;;;10.63;2.22;;;12.80;99.90;;;;;;4908488;29;20039;-77
2023/01/05 13:19:46;;;;;;;8.95;2.25;;;12.80;99.90;;;;;;4903331;29;20075;-70
2023/01/05 13:22:27;;;;;;;8.73;1.63;;;12.80;99.90;;;;;;4888950;29;20032;-73
2023/01/05 13:25:02;;;;;;;9.88;1.77;;;12.80;99.90;;;;;;4889461;29;20077;-73
2023/01/05 13:27:29;;;;;;;12.52;2.17;;;12.80;99.90;;;;;;4905459;29;20072;-74
2023/01/05 13:29:58;;;;;;;10.13;1.98;;;12.70;99.90;;;;;;4908203;29;20046;-74
2023/01/05 13:33:01;;;;;;;8.95;1.92;;;12.70;99.90;;;;;;4907330;29;20044;-72
2023/01/05 13:35:39;;;;;;;10.15;2.50;;;12.70;99.90;;;;;;4903995;29;20028;-74
2023/01/05 13:38:23;;;;;;;8.47;1.83;;;12.80;99.90;;;;;;4908124;29;20096;-72
2023/01/05 13:41:16;;;;;;;10.77;2.10;;;12.80;99.90;;;;;;4907615;29;20813;-72
2023/01/05 13:44:04;;;;;;;10.63;1.95;;;12.90;99.90;;;;;;4907790;29;20095;-72
2023/01/05 13:46:48;;;;;;;11.70;1.90;;;12.90;99.90;;;;;;4907602;29;20047;-75
2023/01/05 13:49:42;;;;;;;11.82;2.00;;;12.80;99.90;;;;;;4907154;29;20044;-77
2023/01/05 13:52:33;;;;;;;11.32;2.40;;;12.80;99.90;;;;;;4907823;29;20060;-73
2023/01/05 13:55:02;;;;;;;11.95;2.20;;;12.60;99.90;;;;;;4907557;29;20104;-73
2023/01/05 13:57:37;;;;;;;10.80;2.35;;;12.60;99.90;;;;;;4906927;29;20320;-74
2023/01/05 14:00:11;;;;;;;10.60;2.15;;;12.70;99.90;;;;;;4907325;29;20097;-73
2023/01/05 14:02:44;;;;;;;10.27;1.80;;;12.60;99.90;;;;;;4907239;29;20229;-75
2023/01/05 14:05:24;;;;;;;8.73;2.10;;;12.60;99.90;;;;;;4906992;29;20036;-75
2023/01/05 14:07:53;;;;;;;8.63;2.40;;;12.60;99.90;;;;;;4907373;29;20040;-75
2023/01/05 14:10:25;;;;;;;9.27;1.83;;;12.60;99.90;;;;;;4906634;29;20214;-74
2023/01/05 14:12:53;;;;;;;11.95;2.30;;;12.50;99.90;;;;;;4907595;29;20032;-75
2023/01/05 14:15:28;;;;;;;11.55;2.15;;;12.50;99.90;;;;;;4906897;29;20036;-74
2023/01/05 14:18:00;;;;;;;11.40;1.92;;;12.50;99.90;;;;;;4907254;29;20379;-75
2023/01/05 14:20:35;;;;;;;7.32;1.75;;;12.40;99.90;;;;;;4907011;29;20032;-75
2023/01/05 14:23:26;;;;;;;11.82;2.03;;;12.40;99.90;;;;;;4907421;29;20326;-75
2023/01/05 14:25:52;;;;;;;10.30;2.13;;;12.40;99.90;;;;;;4907185;29;20051;-74
2023/01/05 14:28:20;;;;;;;11.73;2.00;;;12.40;99.90;;;;;;4906753;29;20032;-74
2023/01/05 14:30:47;;;;;;;13.25;2.85;;;12.30;99.90;;;;;;4907104;29;20054;-74
2023/01/05 14:33:16;;;;;;;10.60;1.67;;;12.30;99.90;;;;;;4905797;29;20084;-74
2023/01/05 14:35:43;;;;;;;12.45;2.80;;;12.30;99.90;;;;;;4907335;29;20375;-74
2023/01/05 14:38:23;;;;;;;11.38;2.10;;;12.30;99.90;;;;;;4906967;29;20326;-75
2023/01/05 14:40:54;;;;;;;13.55;2.30;;;12.20;99.90;;;;;;4905914;29;20131;-75
2023/01/05 14:43:20;;;;;;;11.05;1.70;;;12.20;99.90;;;;;;4906773;29;20036;-74
2023/01/05 14:46:13;;;;;;;15.27;2.60;;;12.20;99.90;;;;;;4906943;29;20237;-73
2023/01/05 14:48:46;;;;;;;10.40;1.80;;;12.20;99.90;;;;;;4906809;29;20028;-75
2023/01/05 14:51:28;;;;;;;12.20;2.33;;;12.20;99.90;;;;;;4906368;29;20039;-76
2023/01/05 14:53:57;;;;;;;11.00;1.95;;;12.20;99.90;;;;;;4906962;29;20032;-75
2023/01/05 14:56:26;;;;;;;10.00;2.05;;;12.20;99.90;;;;;;4905054;29;20041;-74
2023/01/05 14:58:57;;;;;;;10.98;2.63;;;12.20;99.90;;;;;;4906733;29;20032;-75
2023/01/05 15:01:50;;;;;;;11.52;2.05;;;12.10;99.90;;;;;;4895081;29;20086;-75
2023/01/05 15:04:28;;;;;;;17.25;2.95;;;12.10;99.90;;;;;;4894516;29;20033;-75
2023/01/05 15:07:27;;;;;;;13.07;2.55;;;12.10;99.90;;;;;;4907527;29;20044;-75
2023/01/05 15:10:37;;;;;;;6.68;2.22;;;12.10;99.90;;;;;;4911068;29;20279;-74
2023/01/05 15:13:35;;;;;;;12.77;2.42;;;12.10;99.90;;;;;;4910812;29;20116;-75
2023/01/05 15:16:13;;;;;;;;;;;12.10;99.90;;;;;;4900232;29;20307;-74
2023/01/05 15:18:54;;;;;;;11.07;1.92;;;12.00;99.90;;;;;;4910603;29;19962;-74
2023/01/05 15:21:22;;;;;;;11.50;2.30;;;12.00;99.90;;;;;;4912284;29;20037;-72
2023/01/05 15:24:26;;;;;;;13.35;2.22;;;12.00;99.90;;;;;;4918653;29;20039;-74
2023/01/05 15:27:27;;;;;;;11.20;2.40;;;11.90;99.90;;;;;;4918558;29;20036;-75
2023/01/05 15:29:59;;;;;;;10.55;2.15;;;11.90;99.90;;;;;;4910580;29;20036;-73
2023/01/05 15:32:33;;;;;;;9.90;1.90;;;11.90;99.90;;;;;;4909878;29;20310;-73
2023/01/05 15:35:27;;;;;;;9.60;2.17;;;11.90;99.90;;;;;;4910326;29;20036;-74
2023/01/05 15:37:52;;;;;;;13.13;2.10;;;11.80;99.90;;;;;;4910454;29;20040;-74
2023/01/05 15:40:21;;;;;;;11.13;2.33;;;11.80;99.90;;;;;;4909528;29;20050;-74
2023/01/05 15:42:51;;;;;;;10.05;2.10;;;11.90;99.90;;;;;;4910125;29;20040;-74
2023/01/05 15:45:29;;;;;;;8.98;2.03;;;11.80;99.90;;;;;;4908440;29;20096;-74
2023/01/05 15:47:59;;;;;;;10.18;1.92;;;11.80;99.90;;;;;;4910012;29;20032;-73
2023/01/05 15:50:34;;;;;;;10.05;2.10;;;11.80;99.90;;;;;;4909517;29;20056;-74
2023/01/05 15:53:01;;;;;;;8.85;2.33;;;11.90;99.90;;;;;;4908898;29;20063;-74
2023/01/05 15:55:28;;;;;;;10.07;2.65;;;11.90;99.90;;;;;;4909904;29;20055;-74
2023/01/05 15:58:02;;;;;;;12.75;2.10;;;11.90;99.90;;;;;;4908931;29;20041;-74
2023/01/05 16:00:31;;;;;;;7.00;1.88;;;11.80;99.90;;;;;;4905639;29;20096;-74
2023/01/05 16:02:57;;;;;;;8.35;1.92;;;11.80;99.90;;;;;;4890532;29;20083;-74
2023/01/05 16:05:26;;;;;;;9.18;2.10;;;11.80;99.90;;;;;;4906287;29;20044;-73
2023/01/05 16:08:02;;;;;;;12.93;2.22;;;11.80;99.90;;;;;;4909635;29;20073;-73
2023/01/05 16:10:27;;;;;;;11.00;2.20;;;11.70;99.90;;;;;;4909202;29;20039;-74
2023/01/05 16:13:06;;;;;;;10.05;2.38;;;11.70;99.90;;;;;;4909531;29;20028;-74
2023/01/05 16:15:34;;;;;;;9.57;2.72;;;11.70;99.90;;;;;;4908681;29;20047;-73
2023/01/05 16:18:01;;;;;;;10.90;2.10;;;11.70;99.90;;;;;;4909290;29;20037;-73
2023/01/05 16:20:27;;;;;;;11.77;2.72;;;11.60;99.90;;;;;;4908634;29;20131;-76
2023/01/05 16:23:02;;;;;;;9.57;2.15;;;11.60;99.90;;;;;;4909671;29;20028;-76
2023/01/05 16:25:31;;;;;;;10.95;2.22;;;11.60;99.90;;;;;;4909234;29;20230;-75
2023/01/05 16:28:04;;;;;;;7.50;2.22;;;11.60;99.90;;;;;;4908235;29;20036;-76
2023/01/05 16:30:36;;;;;;;9.70;2.63;;;11.60;99.90;;;;;;4908931;29;20267;-77
2023/01/05 16:33:35;;;;;;;10.88;3.03;;;11.60;99.90;;;;;;4908192;29;20100;-74
2023/01/05 16:36:21;;;;;;;9.35;2.17;;;11.60;99.90;;;;;;4909343;29;20341;-72
2023/01/05 16:38:47;;;;;;;10.88;2.28;;;11.60;99.90;;;;;;4909247;29;20095;-71
2023/01/05 16:41:20;;;;;;;7.15;2.45;;;11.50;99.90;;;;;;4907934;29;20108;-73
2023/01/05 16:44:00;;;;;;;7.82;1.88;;;11.50;99.90;;;;;;4907835;29;20041;-73
2023/01/05 16:47:03;;;;;;;7.88;1.80;;;11.50;99.90;;;;;;4889842;29;20033;-71
2023/01/05 16:49:35;;;;;;;10.18;2.33;;;11.50;99.90;;;;;;4900142;29;20037;-74
2023/01/05 16:52:02;;;;;;;10.88;2.85;;;11.50;99.90;;;;;;4907744;29;20109;-74
2023/01/05 16:54:35;;;;;;;10.23;2.20;;;11.50;99.90;;;;;;4908365;29;20119;-72
2023/01/05 16:57:27;;;;;;;12.35;3.20;;;11.50;99.90;;;;;;4909044;29;20029;-72
2023/01/05 16:59:53;;;;;;;10.18;2.30;;;11.50;99.90;;;;;;4905272;29;20032;-70
2023/01/05 17:02:48;;;;;;;10.77;2.90;;;11.50;99.90;;;;;;4907811;29;20052;-72
2023/01/05 17:05:17;;;;;;;10.35;2.80;;;11.40;99.90;;;;;;4907044;29;20036;-71
2023/01/05 17:07:45;;;;;;;11.32;3.13;;;11.40;99.90;;;;;;4908123;29;20047;-72
2023/01/05 17:10:26;;;;;;;10.43;2.58;;;11.40;99.90;;;;;;4908643;29;20085;-72
2023/01/05 17:13:04;;;;;;;10.52;3.08;;;11.40;99.90;;;;;;4908281;29;20045;-72
2023/01/05 17:15:33;;;;;;;12.77;2.50;;;11.40;99.90;;;;;;4907783;29;20047;-75
2023/01/05 17:18:00;;;;;;;11.02;3.10;;;11.40;99.90;;;;;;4907158;29;20029;-73
2023/01/05 17:20:29;;;;;;;9.82;2.33;;;11.40;99.90;;;;;;4907800;29;20024;-73
2023/01/05 17:22:55;;;;;;;13.43;2.78;;;11.40;99.90;;;;;;4908256;29;20337;-79
2023/01/05 17:25:22;;;;;;;9.93;2.70;;;11.40;99.90;;;;;;4908069;29;20032;-77
2023/01/05 17:27:48;;;;;;;8.48;2.05;;;11.40;99.90;;;;;;4908008;29;20279;-72
2023/01/05 17:30:20;;;;;;;9.55;2.67;;;11.40;99.90;;;;;;4907668;29;20128;-70
2023/01/05 17:32:46;;;;;;;10.38;2.75;;;11.40;99.90;;;;;;4907845;29;20029;-72
2023/01/05 17:35:12;;;;;;;9.48;2.63;;;11.40;99.90;;;;;;4908222;29;20093;-73
2023/01/05 17:37:39;;;;;;;12.82;2.95;;;11.30;99.90;;;;;;4907411;29;20047;-74
2023/01/05 17:40:06;;;;;;;11.18;2.72;;;11.30;99.90;;;;;;4908117;29;20036;-73
2023/01/05 17:42:41;;;;;;;8.73;3.13;;;11.30;99.90;;;;;;4907456;29;20085;-72
2023/01/05 17:45:27;;;;;;;11.65;2.60;;;11.30;99.90;;;;;;4907999;29;20334;-74
2023/01/05 17:47:53;;;;;;;11.55;2.60;;;11.20;99.90;;;;;;4908303;29;20059;-73
2023/01/05 17:50:23;;;;;;;10.75;2.42;;;11.30;99.90;;;;;;4908033;29;20227;-73
2023/01/05 17:52:48;;;;;;;7.82;2.42;;;11.20;99.90;;;;;;4907867;29;20306;-73
2023/01/05 17:55:14;;;;;;;8.07;2.50;;;11.10;99.90;;;;;;4907889;29;20093;-73
2023/01/05 17:57:41;;;;;;;11.30;2.85;;;11.10;99.90;;;;;;4907266;29;20353;-75
2023/01/05 18:00:10;;;;;;;9.85;2.72;;;11.00;99.90;;;;;;4907677;29;20292;-73
2023/01/05 18:02:36;;;;;;;10.35;3.08;;;11.00;99.90;;;;;;4907090;29;20178;-74
2023/01/05 18:05:02;;;;;;;9.55;2.50;;;10.90;99.90;;;;;;4907775;29;20025;-74
2023/01/05 18:07:32;;;;;;;8.23;2.58;;;10.90;99.90;;;;;;4906134;29;20037;-75
2023/01/05 18:09:58;;;;;;;9.40;2.92;;;10.90;99.90;;;;;;4907137;29;20039;-74
2023/01/05 18:12:25;;;;;;;10.80;2.40;;;10.80;99.90;;;;;;4907129;29;20045;-73
2023/01/05 18:14:52;;;;;;;10.52;3.10;;;10.70;99.90;;;;;;4903669;29;20329;-72
2023/01/05 18:17:18;;;;;;;10.27;3.42;;;10.60;99.90;;;;;;4907100;29;20108;-73
2023/01/05 18:19:44;;;;;;;10.23;3.00;;;10.50;99.90;;;;;;4905317;29;20391;-74
2023/01/05 18:22:10;;;;;;;10.52;2.92;;;10.50;99.90;;;;;;4906853;29;20037;-73
2023/01/05 18:24:39;;;;;;;13.73;3.90;;;10.40;99.90;;;;;;4906969;29;20024;-73
2023/01/05 18:27:05;;;;;;;6.63;2.85;;;10.40;99.90;;;;;;4907427;29;20047;-74
2023/01/05 18:29:35;;;;;;;8.18;3.22;;;10.40;99.90;;;;;;4906970;29;20045;-72
2023/01/05 18:32:02;;;;;;;12.25;2.72;;;10.50;99.90;;;;;;4906057;29;20043;-73
2023/01/05 18:34:28;;;;;;;13.40;4.30;;;10.50;99.90;;;;;;4906591;29;20052;-73
2023/01/05 18:36:55;;;;;;;11.35;3.90;;;10.50;99.90;;;;;;4906965;29;20028;-73
2023/01/05 18:39:21;;;;;;;11.90;3.80;;;10.50;99.90;;;;;;4907016;29;20225;-74
2023/01/05 18:41:47;;;;;;;11.27;4.00;;;10.50;99.90;;;;;;4906089;29;20025;-73
2023/01/05 18:44:13;;;;;;;9.48;3.08;;;10.50;99.90;;;;;;4906608;29;20039;-73
2023/01/05 18:46:38;;;;;;;13.65;4.53;;;10.60;99.90;;;;;;4906130;29;20032;-73
2023/01/05 18:49:04;;;;;;;10.90;4.35;;;10.60;99.90;;;;;;4906513;29;20031;-74
2023/01/05 18:51:31;;;;;;;9.77;3.20;;;10.70;99.90;;;;;;4906285;29;20039;-74
2023/01/05 18:53:57;;;;;;;11.02;3.38;;;10.70;99.90;;;;;;4901321;29;20099;-73
2023/01/05 18:56:23;;;;;;;10.48;3.90;;;10.70;99.90;;;;;;4906761;29;20029;-71
2023/01/05 18:58:51;;;;;;;10.23;3.55;;;10.60;99.90;;;;;;4904678;29;20040;-73
2023/01/05 19:01:19;;;;;;;11.90;3.03;;;10.70;99.90;;;;;;4896044;29;20227;-74
2023/01/05 19:03:45;;;;;;;8.15;3.00;;;10.70;99.90;;;;;;4890546;29;20050;-74
2023/01/05 19:06:14;;;;;;;12.07;3.10;;;10.70;99.90;;;;;;4906861;29;20089;-74
2023/01/05 19:08:40;;;;;;;9.20;2.90;;;10.70;99.90;;;;;;4906446;29;20020;-73
2023/01/05 19:11:18;;;;;;;8.43;2.70;;;10.80;99.90;;;;;;4906223;29;20056;-74
2023/01/05 19:13:45;;;;;;;7.87;1.93;;;10.80;99.90;;;;;;4904258;29;20031;-73
2023/01/05 19:16:13;;;;;;;6.90;1.80;;;10.80;99.90;;;;;;4906350;29;20651;-76